Time;durP1;ratioP1;P1;durP2;ratioP2;P2;SDS_P1;SDS_P2;PMS_P1;PMS_P2;Temp;Humidity;BMP_temperature;BMP_pressure;BME280_temperature;BME280_humidity;BME280_pressure;Samples;Min_cycle;Max_cycle;Signal;HPM_P1;HPM_P2
2024/04/08 00:00:29;;;;;;;0.70;0.63;;;16.80;99.40;;;;;;5479492;26;20494;-75
2024/04/08 00:02:54;;;;;;;0.40;0.30;;;16.80;99.50;;;;;;5478965;26;20473;-75
2024/04/08 00:05:21;;;;;;;0.30;0.20;;;16.80;99.60;;;;;;5479465;26;20442;-75
2024/04/08 00:07:47;;;;;;;1.17;0.80;;;16.80;99.60;;;;;;5507463;26;20284;-75
2024/04/08 00:10:14;;;;;;;0.30;0.20;;;16.80;99.70;;;;;;5479287;26;20486;-75
2024/04/08 00:12:40;;;;;;;0.30;0.30;;;16.80;99.80;;;;;;5478829;26;20518;-75
2024/04/08 00:15:10;;;;;;;0.30;0.20;;;16.80;99.80;;;;;;5479630;26;20481;-75
2024/04/08 00:17:36;;;;;;;0.30;0.20;;;16.80;99.80;;;;;;5507389;26;20571;-75
2024/04/08 00:20:03;;;;;;;0.57;0.53;;;16.70;99.80;;;;;;5478984;26;20438;-75
2024/04/08 00:22:29;;;;;;;0.30;0.20;;;16.70;99.80;;;;;;5478724;26;20648;-75
2024/04/08 00:24:55;;;;;;;1.83;0.83;;;16.70;99.90;;;;;;5508402;26;20476;-75
2024/04/08 00:27:21;;;;;;;0.30;0.20;;;16.70;99.90;;;;;;5478084;26;20458;-75
2024/04/08 00:29:47;;;;;;;0.40;0.40;;;16.60;99.90;;;;;;5478749;26;21011;-75
2024/04/08 00:32:13;;;;;;;0.40;0.40;;;16.60;99.90;;;;;;5478119;26;20498;-75
2024/04/08 00:34:40;;;;;;;0.60;0.60;;;16.60;99.90;;;;;;5479297;26;20437;-75
2024/04/08 00:37:06;;;;;;;0.40;0.40;;;16.60;99.90;;;;;;5478769;26;20442;-74
2024/04/08 00:39:33;;;;;;;1.13;1.13;;;16.50;99.90;;;;;;5507473;26;20600;-74
2024/04/08 00:42:00;;;;;;;1.43;0.80;;;16.50;99.90;;;;;;5478336;26;20826;-74
2024/04/08 00:44:25;;;;;;;0.33;0.27;;;16.50;99.90;;;;;;5507033;26;20595;-74
2024/04/08 00:46:52;;;;;;;0.30;0.20;;;16.50;99.90;;;;;;5478352;26;20482;-74
2024/04/08 00:49:19;;;;;;;0.90;0.90;;;16.50;99.90;;;;;;5478447;26;20815;-74
2024/04/08 00:51:45;;;;;;;1.60;1.13;;;16.50;99.90;;;;;;5478545;26;20498;-74
2024/04/08 00:54:11;;;;;;;0.30;0.20;;;16.40;99.90;;;;;;5507301;26;21042;-74
2024/04/08 00:56:38;;;;;;;0.30;0.20;;;16.40;99.90;;;;;;5478815;26;20438;-74
2024/04/08 00:59:06;;;;;;;0.30;0.30;;;16.40;99.90;;;;;;5478060;26;20568;-74
2024/04/08 01:01:33;;;;;;;0.30;0.20;;;16.40;99.90;;;;;;5507248;26;20593;-74
2024/04/08 01:03:58;;;;;;;0.67;0.67;;;16.40;99.60;;;;;;5506561;26;20512;-74
2024/04/08 01:06:24;;;;;;;1.90;1.23;;;16.40;99.90;;;;;;5478195;26;20473;-74
2024/04/08 01:08:50;;;;;;;0.77;0.77;;;16.40;99.90;;;;;;5478156;26;20233;-74
2024/04/08 01:11:16;;;;;;;0.40;0.30;;;16.40;99.90;;;;;;5478510;26;20446;-74
2024/04/08 01:13:42;;;;;;;0.50;0.50;;;16.40;99.90;;;;;;5477803;26;20454;-74
2024/04/08 01:16:07;;;;;;;0.30;0.20;;;16.40;99.90;;;;;;5507433;26;20971;-74
2024/04/08 01:18:33;;;;;;;0.30;0.20;;;16.30;99.90;;;;;;5477877;26;20241;-74
2024/04/08 01:21:00;;;;;;;0.30;0.20;;;16.30;99.90;;;;;;5507299;26;20309;-74
2024/04/08 01:23:36;;;;;;;0.30;0.20;;;16.30;99.90;;;;;;5477832;26;20676;-74
2024/04/08 01:26:02;;;;;;;0.30;0.30;;;16.20;99.90;;;;;;5507099;26;20449;-74
2024/04/08 01:28:27;;;;;;;0.30;0.20;;;16.10;99.90;;;;;;5506847;26;20454;-74
2024/04/08 01:30:55;;;;;;;0.97;0.67;;;16.10;99.90;;;;;;5477987;26;20216;-74
2024/04/08 01:33:21;;;;;;;0.40;0.33;;;16.10;99.90;;;;;;5506343;26;20245;-74
2024/04/08 01:35:47;;;;;;;0.67;0.67;;;16.00;99.90;;;;;;5477998;26;21059;-74
2024/04/08 01:38:12;;;;;;;0.30;0.30;;;16.00;99.90;;;;;;5477241;26;20462;-74
2024/04/08 01:40:38;;;;;;;0.40;0.30;;;16.00;99.90;;;;;;5478261;26;20229;-74
2024/04/08 01:43:04;;;;;;;0.30;0.20;;;16.00;99.90;;;;;;5477591;26;20811;-74
2024/04/08 01:45:29;;;;;;;1.13;1.13;;;15.90;99.90;;;;;;5477855;26;20256;-74
2024/04/08 01:47:55;;;;;;;0.30;0.20;;;15.90;99.90;;;;;;5477609;26;20240;-74
2024/04/08 01:50:21;;;;;;;0.30;0.20;;;15.90;99.90;;;;;;5477930;26;20608;-74
2024/04/08 01:52:46;;;;;;;0.30;0.20;;;15.90;99.90;;;;;;5477452;26;20244;-74
2024/04/08 01:55:12;;;;;;;0.30;0.20;;;15.80;99.90;;;;;;5478051;26;20262;-74
2024/04/08 01:57:38;;;;;;;0.30;0.20;;;15.80;99.90;;;;;;5477207;26;20362;-74
2024/04/08 02:00:07;;;;;;;0.30;0.20;;;15.80;99.90;;;;;;5477919;26;20730;-74
2024/04/08 02:02:33;;;;;;;0.43;0.43;;;15.70;99.90;;;;;;5476811;26;20797;-74
2024/04/08 02:04:59;;;;;;;0.30;0.30;;;15.70;99.90;;;;;;5507317;26;20479;-74
2024/04/08 02:07:24;;;;;;;0.30;0.20;;;15.60;99.90;;;;;;5476595;26;20525;-74
2024/04/08 02:09:50;;;;;;;1.80;1.70;;;15.60;99.90;;;;;;5477966;26;20255;-74
2024/04/08 02:12:15;;;;;;;0.50;0.50;;;15.60;99.90;;;;;;5476487;26;20762;-74
2024/04/08 02:14:41;;;;;;;0.30;0.20;;;15.50;99.90;;;;;;5477937;26;20334;-74
2024/04/08 02:17:07;;;;;;;0.40;0.40;;;15.50;99.90;;;;;;5505345;26;20325;-74
2024/04/08 02:19:33;;;;;;;0.30;0.30;;;15.40;99.90;;;;;;5506729;26;20781;-74
2024/04/08 02:21:58;;;;;;;0.30;0.20;;;15.40;99.90;;;;;;5477266;26;20822;-74
2024/04/08 02:24:24;;;;;;;1.80;1.67;;;15.40;99.90;;;;;;5476963;26;20384;-74
2024/04/08 02:26:49;;;;;;;1.57;1.47;;;15.30;99.90;;;;;;5477502;26;20225;-74
2024/04/08 02:29:15;;;;;;;0.30;0.30;;;15.30;99.90;;;;;;5477021;26;20233;-74
2024/04/08 02:31:41;;;;;;;0.30;0.23;;;15.30;99.90;;;;;;5477424;26;20470;-73
2024/04/08 02:34:06;;;;;;;0.30;0.20;;;15.30;99.90;;;;;;5477094;26;20531;-74
2024/04/08 02:36:32;;;;;;;0.30;0.30;;;15.20;99.90;;;;;;5506441;26;20259;-74
2024/04/08 02:38:58;;;;;;;0.60;0.60;;;15.20;99.90;;;;;;5476969;26;20233;-74
2024/04/08 02:41:23;;;;;;;0.50;0.50;;;15.10;99.90;;;;;;5476708;26;20331;-75
2024/04/08 02:43:49;;;;;;;1.73;1.63;;;15.10;99.90;;;;;;5505241;26;20248;-74
2024/04/08 02:46:15;;;;;;;0.30;0.30;;;15.00;99.90;;;;;;5505748;26;20741;-74
2024/04/08 02:48:42;;;;;;;0.50;0.50;;;15.10;99.90;;;;;;5505972;26;20241;-73
2024/04/08 02:51:07;;;;;;;0.40;0.23;;;15.10;99.90;;;;;;5476951;26;20228;-74
2024/04/08 02:53:34;;;;;;;1.50;1.40;;;15.20;99.90;;;;;;5476340;26;20539;-73
2024/04/08 02:56:05;;;;;;;0.80;0.43;;;15.20;99.90;;;;;;5506027;26;20248;-74
2024/04/08 02:58:31;;;;;;;0.30;0.20;;;15.20;99.90;;;;;;5476174;26;20502;-74
2024/04/08 03:01:01;;;;;;;1.40;1.37;;;15.30;99.90;;;;;;5477030;26;20486;-73
2024/04/08 03:03:27;;;;;;;1.53;1.43;;;15.30;99.90;;;;;;5504731;26;20466;-74
2024/04/08 03:05:52;;;;;;;0.60;0.60;;;15.30;99.90;;;;;;5476539;26;20434;-74
2024/04/08 03:08:18;;;;;;;0.63;0.63;;;15.40;99.90;;;;;;5475786;26;20296;-74
2024/04/08 03:10:44;;;;;;;0.70;0.70;;;15.40;99.90;;;;;;5477112;26;20221;-74
2024/04/08 03:13:09;;;;;;;0.30;0.20;;;15.40;99.90;;;;;;5475600;26;20275;-74
2024/04/08 03:15:35;;;;;;;0.40;0.30;;;15.50;99.90;;;;;;5476772;26;20484;-74
2024/04/08 03:18:01;;;;;;;0.50;0.43;;;15.50;99.90;;;;;;5475891;26;20308;-74
2024/04/08 03:20:26;;;;;;;0.40;0.40;;;15.50;99.90;;;;;;5505328;26;20212;-74
2024/04/08 03:22:52;;;;;;;0.33;0.23;;;15.50;99.90;;;;;;5475849;26;20270;-74
2024/04/08 03:25:17;;;;;;;0.40;0.40;;;15.60;99.90;;;;;;5476296;26;20213;-74
2024/04/08 03:27:45;;;;;;;0.30;0.20;;;15.60;99.90;;;;;;5477250;26;20339;-74
2024/04/08 03:30:11;;;;;;;1.40;1.33;;;15.60;99.90;;;;;;5479666;26;20217;-74
2024/04/08 03:32:37;;;;;;;0.50;0.50;;;15.60;99.90;;;;;;5507902;26;20525;-74
2024/04/08 03:35:03;;;;;;;0.30;0.20;;;15.60;99.90;;;;;;5509280;26;20232;-74
2024/04/08 03:37:28;;;;;;;1.17;1.07;;;15.50;99.90;;;;;;5479307;26;20839;-74
2024/04/08 03:39:54;;;;;;;1.53;1.43;;;15.40;99.90;;;;;;5479667;26;20275;-74
2024/04/08 03:42:23;;;;;;;0.30;0.30;;;15.40;99.90;;;;;;5507677;26;20228;-76
2024/04/08 03:44:49;;;;;;;0.30;0.30;;;15.30;99.90;;;;;;5479442;26;20224;-75
2024/04/08 03:47:15;;;;;;;0.30;0.20;;;15.30;99.90;;;;;;5478792;26;20816;-75
2024/04/08 03:49:41;;;;;;;0.40;0.30;;;15.20;99.90;;;;;;5479789;26;20482;-75
2024/04/08 03:52:06;;;;;;;0.30;0.20;;;15.20;99.90;;;;;;5479469;26;20891;-74
2024/04/08 03:54:32;;;;;;;0.30;0.20;;;15.20;99.90;;;;;;5508147;26;20574;-74
2024/04/08 03:56:58;;;;;;;0.53;0.50;;;15.20;99.90;;;;;;5508697;26;20225;-74
2024/04/08 03:59:24;;;;;;;0.63;0.60;;;15.10;99.90;;;;;;5507980;26;20457;-74
2024/04/08 04:01:49;;;;;;;1.07;0.97;;;15.10;99.90;;;;;;5508256;26;20232;-74
2024/04/08 04:04:15;;;;;;;0.50;0.50;;;15.10;99.90;;;;;;5478787;26;20798;-74
2024/04/08 04:06:41;;;;;;;0.57;0.57;;;15.10;99.90;;;;;;5506688;26;20325;-74
2024/04/08 04:09:06;;;;;;;0.30;0.30;;;15.10;99.90;;;;;;5479221;26;20279;-74
2024/04/08 04:11:32;;;;;;;0.63;0.60;;;15.00;99.90;;;;;;5505067;26;20229;-74
2024/04/08 04:13:57;;;;;;;0.50;0.40;;;15.00;99.90;;;;;;5478267;26;20263;-74
2024/04/08 04:16:23;;;;;;;0.67;0.67;;;15.00;99.90;;;;;;5507732;26;20232;-74
2024/04/08 04:18:52;;;;;;;0.30;0.30;;;15.00;99.90;;;;;;5478061;26;20236;-75
2024/04/08 04:21:18;;;;;;;0.30;0.20;;;14.90;99.90;;;;;;5507376;26;20229;-74
2024/04/08 04:23:43;;;;;;;0.30;0.20;;;14.90;99.90;;;;;;5477872;26;20521;-74
2024/04/08 04:26:09;;;;;;;0.30;0.20;;;14.90;99.90;;;;;;5507761;26;20245;-74
2024/04/08 04:28:35;;;;;;;12.93;3.57;;;14.90;99.90;;;;;;5461653;26;21112;-74
2024/04/08 04:31:00;;;;;;;0.30;0.20;;;14.80;99.90;;;;;;5411104;26;21023;-74
2024/04/08 04:33:26;;;;;;;0.30;0.20;;;14.80;99.90;;;;;;5436688;26;20497;-74
2024/04/08 04:35:59;;;;;;;0.30;0.30;;;14.80;99.90;;;;;;5434668;26;20214;-74
2024/04/08 04:38:26;;;;;;;0.30;0.27;;;14.80;99.90;;;;;;5427999;26;20588;-75
2024/04/08 04:41:05;;;;;;;0.30;0.30;;;14.80;99.90;;;;;;5440248;26;20436;-74
2024/04/08 04:43:31;;;;;;;0.40;0.30;;;14.80;99.90;;;;;;5457108;26;20488;-74
2024/04/08 04:45:57;;;;;;;0.97;0.87;;;14.80;99.90;;;;;;5506905;26;20450;-74
2024/04/08 04:48:24;;;;;;;0.30;0.30;;;14.90;99.90;;;;;;5477322;26;20522;-75
2024/04/08 04:50:50;;;;;;;0.40;0.20;;;14.90;99.90;;;;;;5477567;26;20706;-74
2024/04/08 04:53:16;;;;;;;0.30;0.30;;;14.90;99.90;;;;;;5477893;26;20462;-74
2024/04/08 04:55:42;;;;;;;0.30;0.20;;;14.90;99.90;;;;;;5477611;26;20340;-74
2024/04/08 04:58:07;;;;;;;0.40;0.30;;;15.00;99.90;;;;;;5476820;26;20271;-74
2024/04/08 05:00:36;;;;;;;0.40;0.40;;;15.00;99.90;;;;;;5506715;26;20240;-74
2024/04/08 05:03:01;;;;;;;0.80;0.80;;;15.00;99.90;;;;;;5506540;26;20248;-74
2024/04/08 05:05:27;;;;;;;0.40;0.40;;;15.10;99.90;;;;;;5478295;26;20766;-74
2024/04/08 05:07:53;;;;;;;0.30;0.20;;;15.10;99.90;;;;;;5505760;26;20249;-74
2024/04/08 05:10:19;;;;;;;0.40;0.40;;;15.10;99.90;;;;;;5480504;26;21070;-74
2024/04/08 05:12:44;;;;;;;0.30;0.20;;;15.10;99.90;;;;;;5448521;26;20470;-74
2024/04/08 05:15:10;;;;;;;0.30;0.30;;;15.10;99.90;;;;;;5477402;26;20449;-74
2024/04/08 05:17:36;;;;;;;0.40;0.30;;;15.10;99.90;;;;;;5455102;26;20349;-74
2024/04/08 05:20:03;;;;;;;0.60;0.60;;;15.20;99.90;;;;;;5477633;26;20430;-74
2024/04/08 05:22:30;;;;;;;0.50;0.40;;;15.20;99.90;;;;;;5474708;26;20726;-74
2024/04/08 05:24:56;;;;;;;1.57;0.50;;;15.30;99.90;;;;;;5440680;26;21010;-73
2024/04/08 05:27:22;;;;;;;0.30;0.20;;;15.30;99.90;;;;;;5440245;26;20888;-74
2024/04/08 05:29:47;;;;;;;0.57;0.57;;;15.40;99.90;;;;;;5449247;26;20277;-74
2024/04/08 05:32:13;;;;;;;0.30;0.30;;;15.40;99.90;;;;;;5440050;26;20272;-74
2024/04/08 05:34:39;;;;;;;1.13;1.03;;;15.50;99.90;;;;;;5439974;26;20579;-74
2024/04/08 05:37:05;;;;;;;0.63;0.63;;;15.50;99.90;;;;;;5439119;26;20233;-74
2024/04/08 05:39:31;;;;;;;3.33;3.13;;;15.60;99.90;;;;;;5475444;26;20560;-73
2024/04/08 05:41:56;;;;;;;0.30;0.20;;;15.70;99.90;;;;;;5473980;26;20988;-74
2024/04/08 05:44:22;;;;;;;0.60;0.60;;;15.70;99.90;;;;;;5502468;26;20248;-73
2024/04/08 05:46:48;;;;;;;0.87;0.87;;;15.80;99.90;;;;;;5472317;26;20259;-74
2024/04/08 05:49:13;;;;;;;2.03;1.93;;;15.90;99.90;;;;;;5500472;26;20477;-74
2024/04/08 05:51:39;;;;;;;0.60;0.40;;;16.10;99.90;;;;;;5461218;26;20245;-74
2024/04/08 05:54:05;;;;;;;0.40;0.30;;;16.10;99.90;;;;;;5432726;26;20288;-74
2024/04/08 05:56:30;;;;;;;0.30;0.20;;;16.20;99.90;;;;;;5414325;26;20833;-74
2024/04/08 05:58:56;;;;;;;0.30;0.20;;;16.30;99.90;;;;;;5451536;26;20271;-74
2024/04/08 06:01:22;;;;;;;0.40;0.40;;;16.40;99.90;;;;;;5439967;26;20242;-74
2024/04/08 06:03:47;;;;;;;0.90;0.90;;;16.60;99.90;;;;;;5460199;26;20229;-74
2024/04/08 06:06:17;;;;;;;0.50;0.43;;;16.70;99.90;;;;;;5429494;26;20285;-74
2024/04/08 06:08:42;;;;;;;0.30;0.20;;;16.80;99.90;;;;;;5481521;26;20233;-74
2024/04/08 06:11:08;;;;;;;0.30;0.20;;;16.90;99.90;;;;;;5474234;26;20543;-74
2024/04/08 06:13:34;;;;;;;0.43;0.43;;;17.10;99.90;;;;;;5471992;26;20271;-74
2024/04/08 06:16:00;;;;;;;0.30;0.30;;;17.20;99.90;;;;;;5432185;26;20502;-74
2024/04/08 06:18:26;;;;;;;0.40;0.40;;;17.30;99.90;;;;;;5452679;26;20283;-74
2024/04/08 06:20:55;;;;;;;0.33;0.30;;;17.40;99.90;;;;;;5468288;26;20615;-74
2024/04/08 06:23:21;;;;;;;0.60;0.60;;;17.60;99.90;;;;;;5449337;26;20779;-74
2024/04/08 06:25:47;;;;;;;0.60;0.60;;;17.70;99.90;;;;;;5444685;26;20566;-74
2024/04/08 06:28:13;;;;;;;0.60;0.60;;;17.90;99.90;;;;;;5437864;26;20232;-74
2024/04/08 06:30:39;;;;;;;0.40;0.30;;;18.00;99.90;;;;;;5433576;26;20896;-74
2024/04/08 06:33:07;;;;;;;0.30;0.27;;;18.20;99.90;;;;;;5445498;26;20239;-74
2024/04/08 06:35:32;;;;;;;0.80;0.80;;;18.40;99.60;;;;;;5466376;26;20220;-74
2024/04/08 06:37:58;;;;;;;0.40;0.40;;;18.50;99.40;;;;;;5446244;26;20574;-74
2024/04/08 06:40:24;;;;;;;1.70;1.60;;;18.60;99.30;;;;;;5447940;26;20232;-74
2024/04/08 06:42:49;;;;;;;0.30;0.20;;;18.80;99.10;;;;;;5446063;26;20279;-73
2024/04/08 06:45:15;;;;;;;0.37;0.33;;;18.90;98.80;;;;;;5474914;26;20744;-74
2024/04/08 06:47:41;;;;;;;0.30;0.20;;;19.10;98.10;;;;;;5470519;26;20673;-74
2024/04/08 06:50:06;;;;;;;0.40;0.30;;;19.20;98.20;;;;;;5444050;26;20229;-74
2024/04/08 06:52:32;;;;;;;0.40;0.33;;;19.30;97.80;;;;;;5436927;26;20773;-73
2024/04/08 06:54:58;;;;;;;0.50;0.50;;;19.40;97.20;;;;;;5486419;26;20242;-74
2024/04/08 06:57:25;;;;;;;0.30;0.20;;;19.50;96.50;;;;;;5433001;26;20237;-74
2024/04/08 06:59:51;;;;;;;0.40;0.40;;;19.60;96.30;;;;;;5467694;26;20784;-74
2024/04/08 07:02:17;;;;;;;0.30;0.20;;;19.80;96.30;;;;;;5466474;26;20765;-74
2024/04/08 07:04:42;;;;;;;0.40;0.40;;;19.90;96.10;;;;;;5498109;26;20803;-74
2024/04/08 07:07:08;;;;;;;0.30;0.20;;;20.10;96.40;;;;;;5433629;26;20598;-74
2024/04/08 07:09:34;;;;;;;0.77;0.77;;;20.20;95.80;;;;;;5452625;26;20231;-75
2024/04/08 07:11:59;;;;;;;0.30;0.30;;;20.40;96.00;;;;;;5428444;26;20238;-75
2024/04/08 07:14:25;;;;;;;0.60;0.60;;;20.50;95.20;;;;;;5431218;26;20230;-74
2024/04/08 07:16:51;;;;;;;0.30;0.20;;;20.60;95.20;;;;;;5423057;26;20575;-74
2024/04/08 07:19:17;;;;;;;0.30;0.20;;;20.70;94.50;;;;;;5429920;26;20961;-74
2024/04/08 07:21:42;;;;;;;0.40;0.40;;;20.90;94.30;;;;;;5430021;26;20641;-74
2024/04/08 07:24:09;;;;;;;0.57;0.40;;;20.90;93.90;;;;;;5422305;26;20335;-74
2024/04/08 07:26:36;;;;;;;0.40;0.40;;;21.00;93.70;;;;;;5431287;26;20904;-74
2024/04/08 07:29:02;;;;;;;1.13;1.13;;;21.10;93.50;;;;;;5426053;26;20955;-74
2024/04/08 07:31:28;;;;;;;0.30;0.23;;;21.20;93.20;;;;;;5425055;26;20602;-74
2024/04/08 07:33:53;;;;;;;0.30;0.20;;;21.40;92.90;;;;;;5444579;26;20237;-74
2024/04/08 07:36:19;;;;;;;0.57;0.53;;;21.50;92.90;;;;;;5431601;26;20366;-74
2024/04/08 07:38:45;;;;;;;2.30;2.20;;;21.50;92.40;;;;;;5429150;26;20249;-74
2024/04/08 07:41:10;;;;;;;0.30;0.20;;;21.60;92.40;;;;;;5429028;26;20794;-74
2024/04/08 07:43:37;;;;;;;0.33;0.30;;;21.70;92.20;;;;;;5452005;26;20268;-74
2024/04/08 07:46:04;;;;;;;0.30;0.20;;;21.90;92.50;;;;;;5458075;26;20660;-74
2024/04/08 07:48:29;;;;;;;0.30;0.20;;;22.00;91.40;;;;;;5432888;26;21028;-74
2024/04/08 07:50:56;;;;;;;0.30;0.30;;;22.10;91.00;;;;;;5434263;26;20469;-74
2024/04/08 07:53:22;;;;;;;0.40;0.40;;;22.30;90.00;;;;;;5420775;26;20670;-74
2024/04/08 07:55:47;;;;;;;1.37;1.27;;;22.40;90.00;;;;;;5430745;26;20452;-74
2024/04/08 07:58:13;;;;;;;0.40;0.40;;;22.60;89.00;;;;;;5435212;26;20278;-74
2024/04/08 08:00:39;;;;;;;0.30;0.20;;;22.60;89.20;;;;;;5421020;26;20224;-75
2024/04/08 08:03:05;;;;;;;1.13;1.13;;;22.80;88.90;;;;;;5443676;26;20721;-74
2024/04/08 08:05:31;;;;;;;0.30;0.20;;;22.90;87.60;;;;;;5459459;26;20764;-74
2024/04/08 08:07:59;;;;;;;0.30;0.20;;;23.00;86.70;;;;;;5442751;26;20468;-75
2024/04/08 08:10:25;;;;;;;0.30;0.30;;;23.00;86.20;;;;;;5497440;26;20496;-74
2024/04/08 08:12:51;;;;;;;0.30;0.20;;;23.10;86.30;;;;;;5430159;26;20482;-74
2024/04/08 08:15:16;;;;;;;0.43;0.30;;;23.20;86.40;;;;;;5431181;26;20502;-74
2024/04/08 08:17:42;;;;;;;0.40;0.40;;;23.30;85.10;;;;;;5440217;26;20256;-74
2024/04/08 08:20:08;;;;;;;0.30;0.20;;;23.40;85.50;;;;;;5436562;26;20259;-75
2024/04/08 08:22:34;;;;;;;0.40;0.40;;;23.40;85.50;;;;;;5436154;26;20286;-74
2024/04/08 08:25:00;;;;;;;1.70;0.50;;;23.50;85.80;;;;;;5429496;26;20282;-74
2024/04/08 08:27:25;;;;;;;0.30;0.20;;;23.50;83.70;;;;;;5428690;26;20477;-75
2024/04/08 08:29:52;;;;;;;0.30;0.30;;;23.50;84.80;;;;;;5416520;26;20609;-74
2024/04/08 08:32:17;;;;;;;0.30;0.20;;;23.60;84.70;;;;;;5430759;26;20816;-74
2024/04/08 08:34:43;;;;;;;0.30;0.20;;;23.60;83.60;;;;;;5457591;26;21065;-75
2024/04/08 08:37:09;;;;;;;0.30;0.30;;;23.80;83.50;;;;;;5423802;26;20480;-74
2024/04/08 08:39:37;;;;;;;0.30;0.30;;;23.80;83.00;;;;;;5438143;26;20233;-74
2024/04/08 08:42:07;;;;;;;0.30;0.30;;;23.80;82.60;;;;;;5427886;26;20919;-75
2024/04/08 08:44:34;;;;;;;0.30;0.20;;;23.80;83.10;;;;;;5439552;26;20859;-74
2024/04/08 08:47:01;;;;;;;0.30;0.20;;;24.10;82.70;;;;;;5399486;26;20445;-74
2024/04/08 08:49:29;;;;;;;0.60;0.57;;;24.20;81.70;;;;;;5460802;26;20513;-75
2024/04/08 08:51:55;;;;;;;0.60;0.60;;;24.40;81.60;;;;;;5439303;26;21068;-75
2024/04/08 08:54:21;;;;;;;0.67;0.67;;;24.60;81.70;;;;;;5460283;26;20509;-75
2024/04/08 08:56:47;;;;;;;0.40;0.40;;;24.90;82.00;;;;;;5442981;26;20459;-74
2024/04/08 08:59:15;;;;;;;0.30;0.30;;;25.30;81.20;;;;;;5462844;26;20244;-75
2024/04/08 09:01:41;;;;;;;0.30;0.30;;;25.40;78.60;;;;;;5499451;26;20691;-75
2024/04/08 09:04:12;;;;;;;0.60;0.60;;;25.30;79.60;;;;;;5500379;26;20493;-74
2024/04/08 09:06:38;;;;;;;0.30;0.20;;;25.30;78.70;;;;;;5458851;26;20471;-74
2024/04/08 09:09:05;;;;;;;0.50;0.43;;;25.20;78.80;;;;;;5462235;26;20466;-75
2024/04/08 09:11:30;;;;;;;0.30;0.30;;;25.20;79.50;;;;;;5451263;26;20459;-75
2024/04/08 09:14:06;;;;;;;1.07;0.40;;;25.20;78.60;;;;;;5437768;26;20451;-75
2024/04/08 09:16:32;;;;;;;0.30;0.20;;;25.20;78.60;;;;;;5427669;26;20230;-75
2024/04/08 09:18:57;;;;;;;0.40;0.40;;;25.20;79.00;;;;;;5436725;26;20455;-75
2024/04/08 09:21:23;;;;;;;0.30;0.20;;;25.30;78.30;;;;;;5433042;26;20268;-75
2024/04/08 09:23:53;;;;;;;0.30;0.30;;;25.30;78.30;;;;;;5458378;26;20271;-75
2024/04/08 09:26:18;;;;;;;0.30;0.20;;;25.20;78.40;;;;;;5462079;26;20730;-75
2024/04/08 09:28:44;;;;;;;0.30;0.20;;;25.20;79.30;;;;;;5443318;26;20460;-76
2024/04/08 09:31:11;;;;;;;0.30;0.30;;;25.30;77.90;;;;;;5433152;26;20324;-75
2024/04/08 09:33:36;;;;;;;0.50;0.50;;;25.30;77.60;;;;;;5432644;26;20805;-75
2024/04/08 09:36:03;;;;;;;0.40;0.40;;;25.20;77.60;;;;;;5434434;26;20511;-75
2024/04/08 09:38:30;;;;;;;0.30;0.20;;;25.10;78.10;;;;;;5451764;26;20355;-75
2024/04/08 09:40:57;;;;;;;0.50;0.40;;;25.10;78.10;;;;;;5429513;26;20515;-75
2024/04/08 09:43:24;;;;;;;0.30;0.20;;;25.20;78.50;;;;;;5450102;26;20458;-75
2024/04/08 09:45:49;;;;;;;1.33;1.23;;;25.20;77.70;;;;;;5466885;26;20494;-76
2024/04/08 09:48:17;;;;;;;0.50;0.50;;;25.20;78.60;;;;;;5460531;26;20452;-75
2024/04/08 09:50:43;;;;;;;0.30;0.20;;;25.30;78.70;;;;;;5428904;26;20812;-76
2024/04/08 09:53:10;;;;;;;0.30;0.30;;;25.40;78.80;;;;;;5430386;26;20519;-75
2024/04/08 09:55:40;;;;;;;0.30;0.30;;;25.50;78.00;;;;;;5434349;26;21098;-75
2024/04/08 09:58:08;;;;;;;0.40;0.30;;;25.40;78.00;;;;;;5444027;26;20512;-75
2024/04/08 10:00:36;;;;;;;0.70;0.40;;;25.40;78.10;;;;;;5469423;26;20498;-75
2024/04/08 10:03:09;;;;;;;0.40;0.30;;;25.40;77.60;;;;;;5466938;26;20688;-75
2024/04/08 10:05:35;;;;;;;0.30;0.20;;;25.40;77.50;;;;;;5447616;26;20943;-75
2024/04/08 10:08:02;;;;;;;0.30;0.20;;;25.50;78.30;;;;;;5422237;26;20475;-74
2024/04/08 10:10:29;;;;;;;0.97;0.93;;;25.50;77.70;;;;;;5421937;26;20554;-75
2024/04/08 10:12:59;;;;;;;0.80;0.80;;;25.70;77.50;;;;;;5435890;26;20471;-75
2024/04/08 10:15:31;;;;;;;0.30;0.20;;;25.70;77.40;;;;;;5448235;26;21122;-74
2024/04/08 10:17:57;;;;;;;0.30;0.20;;;25.60;76.80;;;;;;5429891;26;20816;-75
2024/04/08 10:20:23;;;;;;;0.30;0.20;;;25.60;76.60;;;;;;5473550;26;20452;-75
2024/04/08 10:22:49;;;;;;;0.80;0.43;;;25.70;77.10;;;;;;5433081;26;20848;-75
2024/04/08 10:25:36;;;;;;;0.30;0.30;;;25.70;76.00;;;;;;5431620;26;21011;-75
2024/04/08 10:28:10;;;;;;;0.47;0.47;;;25.80;76.60;;;;;;5426011;26;20611;-75
2024/04/08 10:30:39;;;;;;;1.27;1.17;;;25.80;77.30;;;;;;5424887;26;21104;-74
2024/04/08 10:33:10;;;;;;;3.47;3.17;;;25.80;75.90;;;;;;5423551;26;21314;-74
2024/04/08 10:35:36;;;;;;;0.30;0.20;;;25.70;76.90;;;;;;5423773;26;21007;-74
2024/04/08 10:38:02;;;;;;;0.87;0.60;;;25.70;76.10;;;;;;5411529;26;20581;-74
2024/04/08 10:40:28;;;;;;;0.30;0.20;;;25.70;77.90;;;;;;5418583;26;20752;-74
2024/04/08 10:42:55;;;;;;;0.30;0.27;;;25.90;77.40;;;;;;5423496;26;20562;-74
2024/04/08 10:45:22;;;;;;;0.30;0.20;;;26.00;77.00;;;;;;5416101;26;20280;-74
2024/04/08 10:47:48;;;;;;;0.30;0.20;;;26.10;76.80;;;;;;5423971;26;20471;-75
2024/04/08 10:50:14;;;;;;;0.30;0.30;;;26.20;76.40;;;;;;5429200;26;20584;-74
2024/04/08 10:52:41;;;;;;;0.30;0.20;;;26.20;76.40;;;;;;5429754;26;20695;-74
2024/04/08 10:55:08;;;;;;;0.47;0.47;;;26.10;76.40;;;;;;5431712;26;20562;-74
2024/04/08 10:57:34;;;;;;;0.37;0.27;;;26.10;75.50;;;;;;5422909;26;21006;-74
2024/04/08 11:00:05;;;;;;;0.40;0.30;;;26.10;75.60;;;;;;5428601;26;20572;-74
2024/04/08 11:02:32;;;;;;;0.53;0.53;;;26.20;76.70;;;;;;5420690;26;20464;-75
2024/04/08 11:05:02;;;;;;;0.53;0.47;;;26.20;76.10;;;;;;5428618;26;20525;-74
2024/04/08 11:07:35;;;;;;;0.30;0.20;;;26.30;75.30;;;;;;5424973;26;20610;-74
2024/04/08 11:10:10;;;;;;;0.60;0.60;;;26.30;75.50;;;;;;5431144;26;20447;-74
2024/04/08 11:12:36;;;;;;;0.40;0.30;;;26.40;75.40;;;;;;5429055;26;20776;-74
2024/04/08 11:15:03;;;;;;;0.30;0.20;;;26.50;75.80;;;;;;5460394;26;20462;-75
2024/04/08 11:17:29;;;;;;;1.13;0.73;;;26.50;75.30;;;;;;5430152;26;21025;-75
2024/04/08 11:19:56;;;;;;;0.30;0.20;;;26.60;76.20;;;;;;5445481;26;20455;-74
2024/04/08 11:22:21;;;;;;;0.30;0.20;;;26.60;75.40;;;;;;5441255;26;20460;-74
2024/04/08 11:24:47;;;;;;;0.30;0.30;;;26.70;76.30;;;;;;5439534;26;20501;-74
2024/04/08 11:27:13;;;;;;;0.30;0.20;;;26.70;75.30;;;;;;5425445;26;20305;-74
2024/04/08 11:29:45;;;;;;;0.30;0.30;;;26.70;74.90;;;;;;5428270;26;20688;-74
2024/04/08 11:32:14;;;;;;;0.30;0.30;;;26.70;74.90;;;;;;5425249;26;21094;-75
2024/04/08 11:34:43;;;;;;;0.30;0.30;;;26.80;74.90;;;;;;5424221;26;20466;-75
2024/04/08 11:37:10;;;;;;;0.30;0.30;;;26.80;74.60;;;;;;5414195;26;20469;-74
2024/04/08 11:39:40;;;;;;;0.30;0.20;;;26.70;75.10;;;;;;5415105;26;20444;-74
2024/04/08 11:42:07;;;;;;;0.30;0.27;;;26.60;75.00;;;;;;5429783;26;20810;-74
2024/04/08 11:44:33;;;;;;;0.30;0.20;;;26.70;75.10;;;;;;5431479;26;20464;-74
2024/04/08 11:47:03;;;;;;;0.30;0.30;;;26.70;76.00;;;;;;5428847;26;20443;-74
2024/04/08 11:49:32;;;;;;;0.30;0.20;;;26.70;75.80;;;;;;5441016;26;20529;-74
2024/04/08 11:52:03;;;;;;;1.17;1.07;;;26.70;74.90;;;;;;5436202;26;21017;-74
2024/04/08 11:54:28;;;;;;;0.43;0.43;;;26.70;75.60;;;;;;5428825;26;21141;-74
2024/04/08 11:56:54;;;;;;;0.30;0.20;;;26.70;76.00;;;;;;5461902;26;20475;-75
2024/04/08 11:59:20;;;;;;;0.30;0.23;;;26.80;75.10;;;;;;5433214;26;20649;-74
2024/04/08 12:01:48;;;;;;;0.30;0.30;;;26.90;75.60;;;;;;5430341;26;20579;-74
2024/04/08 12:04:14;;;;;;;0.57;0.50;;;26.90;76.10;;;;;;5433124;26;20235;-74
2024/04/08 12:06:41;;;;;;;1.27;0.80;;;26.90;76.10;;;;;;5423205;26;20939;-75
2024/04/08 12:09:08;;;;;;;0.30;0.30;;;26.90;74.80;;;;;;5413234;26;20899;-75
2024/04/08 12:11:33;;;;;;;0.30;0.20;;;26.90;75.40;;;;;;5432076;26;20573;-74
2024/04/08 12:13:59;;;;;;;0.30;0.20;;;26.90;75.60;;;;;;5431414;26;21406;-74
2024/04/08 12:16:26;;;;;;;0.30;0.20;;;26.90;75.20;;;;;;5451336;26;20344;-74
2024/04/08 12:18:52;;;;;;;0.40;0.30;;;26.90;75.10;;;;;;5436309;26;20595;-74
2024/04/08 12:21:18;;;;;;;1.40;1.30;;;27.00;75.30;;;;;;5428648;26;20553;-74
2024/04/08 12:23:43;;;;;;;1.93;0.97;;;27.10;75.20;;;;;;5432444;26;20465;-74
2024/04/08 12:26:12;;;;;;;0.40;0.30;;;27.10;75.90;;;;;;5430952;26;20284;-74
2024/04/08 12:28:37;;;;;;;0.40;0.30;;;27.10;74.70;;;;;;5447104;26;20717;-75
2024/04/08 12:31:03;;;;;;;0.30;0.20;;;27.20;75.80;;;;;;5412396;26;20685;-75
2024/04/08 12:33:29;;;;;;;0.30;0.20;;;27.30;74.00;;;;;;5426042;26;20269;-76
2024/04/08 12:35:55;;;;;;;0.30;0.20;;;27.30;73.70;;;;;;5420896;26;20510;-75
2024/04/08 12:38:20;;;;;;;0.93;0.83;;;27.30;73.40;;;;;;5451171;26;20803;-75
2024/04/08 12:40:46;;;;;;;0.50;0.50;;;27.30;73.40;;;;;;5466343;26;20235;-72
2024/04/08 12:43:12;;;;;;;0.40;0.40;;;27.30;72.90;;;;;;5430429;26;20232;-75